createdAt,value
2022-10-17T00:00:01.980Z,13.00
2022-10-17T00:03:03.806Z,13.10
2022-10-17T00:06:11.967Z,13.10
2022-10-17T00:09:13.562Z,13.10
2022-10-17T00:12:15.145Z,13.10
2022-10-17T00:15:19.237Z,13.10
2022-10-17T00:18:20.945Z,13.00
2022-10-17T00:21:23.819Z,13.00
2022-10-17T00:24:25.435Z,13.00
2022-10-17T00:27:27.242Z,13.00
2022-10-17T00:30:28.996Z,12.90
2022-10-17T00:33:31.972Z,12.90
2022-10-17T00:36:34.837Z,12.90
2022-10-17T00:39:36.418Z,12.90
2022-10-17T00:42:38.067Z,13.00
2022-10-17T00:45:39.708Z,13.00
2022-10-17T00:48:41.636Z,13.00
2022-10-17T00:51:46.852Z,13.00
2022-10-17T00:54:56.247Z,13.00
2022-10-17T00:58:00.612Z,13.00
2022-10-17T01:01:03.290Z,12.90
2022-10-17T01:04:05.017Z,12.90
2022-10-17T01:07:06.620Z,12.80
2022-10-17T01:10:09.286Z,12.80
2022-10-17T01:13:18.087Z,12.80
2022-10-17T01:16:52.020Z,12.80
2022-10-17T01:20:07.711Z,12.70
2022-10-17T01:23:30.414Z,12.70
2022-10-17T01:26:52.285Z,12.70
2022-10-17T01:30:13.156Z,12.70
2022-10-17T01:33:44.319Z,12.70
2022-10-17T01:36:57.601Z,12.70
2022-10-17T01:40:11.549Z,12.70
2022-10-17T01:43:33.286Z,12.60
2022-10-17T01:46:41.159Z,12.70
2022-10-17T01:49:45.581Z,12.60
2022-10-17T01:52:53.399Z,12.60
2022-10-17T01:55:59.287Z,12.40
2022-10-17T01:59:06.894Z,12.40
2022-10-17T02:02:10.238Z,12.40
2022-10-17T02:05:12.182Z,12.40
2022-10-17T02:08:14.243Z,12.40
2022-10-17T02:11:20.235Z,12.30
2022-10-17T02:14:51.888Z,12.30
2022-10-17T02:18:15.769Z,12.20
2022-10-17T02:21:48.124Z,12.10
2022-10-17T02:25:13.379Z,12.10
2022-10-17T02:28:14.927Z,12.10
2022-10-17T02:31:28.881Z,12.10
2022-10-17T02:34:40.737Z,12.10
2022-10-17T02:37:44.469Z,12.00
2022-10-17T02:40:50.101Z,12.10
2022-10-17T02:43:53.225Z,12.10
2022-10-17T02:47:21.728Z,12.10
2022-10-17T02:50:31.005Z,12.10
2022-10-17T02:53:54.213Z,12.00
2022-10-17T02:57:10.872Z,12.00
2022-10-17T03:00:15.118Z,12.00
2022-10-17T03:03:28.465Z,12.00
2022-10-17T03:06:30.112Z,12.00
2022-10-17T03:09:31.720Z,11.90
2022-10-17T03:12:33.481Z,12.00
2022-10-17T03:15:35.136Z,12.00
2022-10-17T03:18:36.725Z,12.00
2022-10-17T03:21:38.356Z,12.00
2022-10-17T03:24:39.961Z,11.90
2022-10-17T03:27:41.529Z,11.90
2022-10-17T03:30:43.243Z,12.00
2022-10-17T03:33:44.851Z,12.00
2022-10-17T03:36:49.250Z,12.00
2022-10-17T03:39:50.862Z,12.00
2022-10-17T03:42:52.476Z,12.00
2022-10-17T03:45:54.050Z,12.00
2022-10-17T03:48:55.672Z,11.90
2022-10-17T03:51:57.354Z,11.90
2022-10-17T03:54:58.945Z,11.90
2022-10-17T03:58:00.518Z,11.90
2022-10-17T04:01:05.394Z,11.90
2022-10-17T04:04:07.308Z,11.90
2022-10-17T04:07:08.872Z,11.80
2022-10-17T04:10:10.908Z,11.80
2022-10-17T04:13:12.500Z,11.80
2022-10-17T04:16:16.578Z,11.80
2022-10-17T04:19:18.127Z,11.80
2022-10-17T04:22:19.724Z,11.80
2022-10-17T04:25:21.367Z,11.80
2022-10-17T04:28:23.711Z,11.90
2022-10-17T04:31:25.343Z,11.90
2022-10-17T04:34:26.908Z,11.90
2022-10-17T04:37:29.519Z,11.80
2022-10-17T04:40:31.198Z,11.90
2022-10-17T04:43:34.992Z,11.90
2022-10-17T04:46:39.831Z,11.80
2022-10-17T04:52:48.416Z,11.90
2022-10-17T04:55:50.094Z,11.90
2022-10-17T04:58:52.075Z,11.80
2022-10-17T05:01:53.656Z,11.80
2022-10-17T05:04:55.210Z,11.80
2022-10-17T05:07:57.016Z,11.80
2022-10-17T05:14:05.107Z,11.80
2022-10-17T05:17:06.673Z,11.80
2022-10-17T05:20:11.773Z,11.80
2022-10-17T05:23:13.351Z,11.90
2022-10-17T05:26:15.412Z,11.80
2022-10-17T05:29:17.267Z,11.80
2022-10-17T05:32:18.881Z,11.80
2022-10-17T05:35:21.164Z,11.70
2022-10-17T05:38:22.724Z,11.70
2022-10-17T05:41:24.286Z,11.70
2022-10-17T05:44:25.870Z,11.60
2022-10-17T05:47:27.738Z,11.50
2022-10-17T05:50:29.852Z,11.40
2022-10-17T05:53:32.848Z,11.40
2022-10-17T05:56:35.423Z,11.40
2022-10-17T05:59:36.995Z,11.40
2022-10-17T06:02:38.585Z,11.30
2022-10-17T06:05:42.210Z,11.40
2022-10-17T06:08:44.685Z,11.40
2022-10-17T06:11:46.264Z,11.40
2022-10-17T06:14:47.836Z,11.50
2022-10-17T06:17:49.394Z,11.50
2022-10-17T06:20:51.059Z,11.60
2022-10-17T06:23:53.251Z,11.70
2022-10-17T06:26:54.850Z,11.70
2022-10-17T06:29:56.485Z,11.80
2022-10-17T06:32:58.322Z,11.80
2022-10-17T06:35:59.888Z,11.90
2022-10-17T06:39:01.465Z,12.00
2022-10-17T06:42:03.734Z,12.00
2022-10-17T06:45:06.275Z,12.20
2022-10-17T06:48:08.432Z,12.30
2022-10-17T06:51:11.311Z,12.40
2022-10-17T06:54:12.992Z,12.50
2022-10-17T06:57:14.750Z,12.50
2022-10-17T07:00:16.549Z,12.60
2022-10-17T07:03:18.181Z,12.70
2022-10-17T07:06:19.905Z,12.70
2022-10-17T07:09:22.756Z,12.80
2022-10-17T07:12:24.778Z,12.90
2022-10-17T07:15:27.735Z,13.10
2022-10-17T07:18:29.317Z,13.20
2022-10-17T07:21:34.068Z,13.40
2022-10-17T07:24:38.411Z,13.50
2022-10-17T07:27:40.014Z,13.70
2022-10-17T07:30:41.776Z,13.90
2022-10-17T07:33:44.200Z,14.00
2022-10-17T07:36:46.172Z,14.10
2022-10-17T07:39:47.815Z,14.20
2022-10-17T07:42:49.425Z,14.30
2022-10-17T07:45:51.556Z,14.40
2022-10-17T07:48:53.149Z,14.50
2022-10-17T07:51:54.705Z,14.60
2022-10-17T07:54:56.284Z,14.80
2022-10-17T07:58:00.349Z,15.00
2022-10-17T08:01:10.716Z,15.20
2022-10-17T08:04:16.708Z,15.30
2022-10-17T08:07:22.922Z,15.40
2022-10-17T08:10:29.625Z,15.50
2022-10-17T08:13:31.363Z,15.70
2022-10-17T08:16:32.944Z,15.90
2022-10-17T08:19:34.792Z,15.90
2022-10-17T08:22:36.399Z,16.00
2022-10-17T08:25:39.796Z,16.00
2022-10-17T08:28:41.636Z,16.10
2022-10-17T08:31:47.460Z,16.10
2022-10-17T08:34:50.021Z,16.20
2022-10-17T08:37:51.598Z,16.30
2022-10-17T08:40:54.956Z,16.40
2022-10-17T08:44:02.347Z,16.50
2022-10-17T08:47:08.741Z,16.60
2022-10-17T08:50:19.935Z,16.60
2022-10-17T08:53:38.992Z,16.80
2022-10-17T08:56:49.012Z,16.80
2022-10-17T08:59:53.447Z,16.90
2022-10-17T09:03:29.786Z,17.00
2022-10-17T09:06:57.107Z,17.20
2022-10-17T09:10:18.885Z,17.20
2022-10-17T09:14:05.129Z,17.20
2022-10-17T09:17:18.525Z,17.30
2022-10-17T09:20:24.316Z,17.20
2022-10-17T09:23:30.339Z,17.30
2022-10-17T09:26:32.003Z,17.30
2022-10-17T09:29:37.951Z,17.40
2022-10-17T09:32:42.969Z,17.50
2022-10-17T09:35:46.187Z,17.60
2022-10-17T09:38:54.096Z,17.70
2022-10-17T09:41:58.117Z,17.80
2022-10-17T09:45:02.423Z,18.00
2022-10-17T09:48:21.730Z,18.10
2022-10-17T09:51:26.110Z,18.20
2022-10-17T09:54:36.208Z,18.30
2022-10-17T09:57:58.117Z,18.40
2022-10-17T10:01:22.866Z,18.50
2022-10-17T10:04:30.263Z,18.60
2022-10-17T10:07:39.356Z,18.80
2022-10-17T10:10:44.254Z,18.80
2022-10-17T10:13:48.851Z,18.80
2022-10-17T10:16:53.645Z,18.90
2022-10-17T10:19:55.721Z,19.00
2022-10-17T10:23:21.289Z,19.10
2022-10-17T10:26:25.839Z,19.30
2022-10-17T10:29:34.406Z,19.60
2022-10-17T10:32:37.244Z,19.80
2022-10-17T10:35:39.294Z,20.00
2022-10-17T10:38:42.430Z,20.30
2022-10-17T10:41:50.204Z,20.50
2022-10-17T10:44:53.651Z,20.60
2022-10-17T10:47:58.769Z,20.80
2022-10-17T10:51:19.469Z,20.80
2022-10-17T10:54:26.381Z,20.90
2022-10-17T10:57:31.988Z,21.00
2022-10-17T11:00:37.321Z,21.20
2022-10-17T11:04:07.914Z,21.40
2022-10-17T11:07:17.566Z,21.60
2022-10-17T11:10:32.869Z,21.80
2022-10-17T11:13:42.472Z,22.00
2022-10-17T11:16:54.003Z,22.10
2022-10-17T11:20:07.588Z,22.10
2022-10-17T11:23:30.263Z,22.10
2022-10-17T11:26:35.596Z,22.10
2022-10-17T11:29:41.177Z,22.00
2022-10-17T11:32:58.060Z,22.10
2022-10-17T11:36:05.424Z,22.30
2022-10-17T11:39:18.042Z,22.30
2022-10-17T11:42:27.842Z,22.40
2022-10-17T11:45:40.574Z,22.40
2022-10-17T11:49:00.909Z,22.30
2022-10-17T11:52:56.045Z,22.30
2022-10-17T11:56:00.269Z,22.50
2022-10-17T11:59:12.077Z,22.70
2022-10-17T12:02:32.568Z,22.80
2022-10-17T12:05:52.537Z,22.90
2022-10-17T12:09:29.252Z,22.90
2022-10-17T12:12:33.463Z,22.90
2022-10-17T12:15:35.308Z,22.80
2022-10-17T12:18:36.956Z,22.90
2022-10-17T12:22:06.039Z,23.10
2022-10-17T12:25:18.845Z,23.30
2022-10-17T12:28:34.195Z,23.40
2022-10-17T12:31:35.976Z,23.50
2022-10-17T12:34:38.773Z,23.50
2022-10-17T12:37:43.077Z,23.50
2022-10-17T12:40:49.055Z,23.50
2022-10-17T12:43:54.886Z,23.50
2022-10-17T12:47:25.321Z,23.50
2022-10-17T12:51:23.756Z,23.50
2022-10-17T12:54:25.765Z,23.60
2022-10-17T12:57:34.925Z,23.80
2022-10-17T13:01:18.802Z,23.80
2022-10-17T13:04:16.667Z,23.90
2022-10-17T13:07:21.269Z,24.00
2022-10-17T13:13:44.180Z,24.10
2022-10-17T13:17:03.447Z,24.10
2022-10-17T13:20:25.544Z,24.20
2022-10-17T13:23:34.572Z,24.20
2022-10-17T13:26:36.220Z,24.30
2022-10-17T13:29:44.477Z,24.30
2022-10-17T13:32:46.235Z,24.20
2022-10-17T13:36:00.051Z,24.30
2022-10-17T13:39:12.220Z,24.20
2022-10-17T13:42:44.335Z,24.20
2022-10-17T13:46:32.358Z,24.20
2022-10-17T13:49:41.286Z,24.20
2022-10-17T13:52:42.863Z,24.30
2022-10-17T13:56:27.245Z,24.30
2022-10-17T13:59:41.662Z,24.30
2022-10-17T14:02:43.339Z,24.30
2022-10-17T14:06:11.274Z,24.20
2022-10-17T14:09:32.070Z,24.20
2022-10-17T14:12:34.252Z,24.10
2022-10-17T14:15:37.058Z,24.00
2022-10-17T14:18:38.808Z,24.00
2022-10-17T14:21:44.693Z,23.90
2022-10-17T14:24:47.265Z,23.90
2022-10-17T14:28:03.400Z,23.80
2022-10-17T14:31:29.768Z,23.70
2022-10-17T14:34:35.129Z,23.70
2022-10-17T14:37:44.831Z,23.80
2022-10-17T14:41:15.415Z,23.80
2022-10-17T14:44:26.351Z,23.80
2022-10-17T14:47:42.847Z,23.80
2022-10-17T14:51:08.834Z,23.70
2022-10-17T14:54:27.359Z,23.60
2022-10-17T14:57:42.731Z,23.60
2022-10-17T15:00:44.368Z,23.50
2022-10-17T15:03:46.046Z,23.40
2022-10-17T15:06:54.075Z,23.30
2022-10-17T15:09:55.721Z,23.30
2022-10-17T15:12:59.295Z,23.20
2022-10-17T15:16:26.344Z,23.20
2022-10-17T15:19:27.966Z,23.20
2022-10-17T15:22:31.417Z,23.30
2022-10-17T15:25:34.459Z,23.40
2022-10-17T15:28:36.066Z,23.40
2022-10-17T15:31:37.854Z,23.40
2022-10-17T15:34:39.795Z,23.30
2022-10-17T15:37:42.783Z,23.30
2022-10-17T15:40:45.829Z,23.20
2022-10-17T15:43:48.631Z,23.20
2022-10-17T15:46:50.234Z,23.10
2022-10-17T15:49:51.906Z,23.10
2022-10-17T15:52:53.501Z,23.10
2022-10-17T15:55:55.281Z,23.00
2022-10-17T15:58:57.575Z,22.80
2022-10-17T16:01:59.161Z,22.70
2022-10-17T16:05:01.052Z,22.50
2022-10-17T16:08:02.775Z,22.40
2022-10-17T16:11:04.390Z,22.20
2022-10-17T16:14:10.717Z,22.10
2022-10-17T16:17:16.864Z,21.90
2022-10-17T16:20:19.892Z,21.80
2022-10-17T16:23:21.530Z,21.60
2022-10-17T16:26:23.373Z,21.50
2022-10-17T16:29:24.986Z,21.40
2022-10-17T16:32:26.640Z,21.30
2022-10-17T16:35:33.332Z,21.10
2022-10-17T16:38:38.276Z,21.10
2022-10-17T16:41:39.895Z,21.00
2022-10-17T16:44:41.466Z,20.90
2022-10-17T16:47:43.132Z,20.80
2022-10-17T16:50:44.733Z,20.60
2022-10-17T16:53:49.989Z,20.50
2022-10-17T16:56:51.683Z,20.50
2022-10-17T16:59:53.287Z,20.40
2022-10-17T17:02:54.956Z,20.30
2022-10-17T17:05:56.951Z,20.20
2022-10-17T17:08:58.572Z,20.30
2022-10-17T17:12:00.193Z,20.30
2022-10-17T17:15:02.015Z,20.20
2022-10-17T17:18:05.787Z,20.20
2022-10-17T17:21:09.802Z,20.20
2022-10-17T17:24:11.349Z,20.20
2022-10-17T17:27:13.680Z,20.20
2022-10-17T17:30:15.663Z,20.20
2022-10-17T17:33:17.255Z,20.10
2022-10-17T17:36:22.597Z,20.10
2022-10-17T17:39:24.165Z,20.10
2022-10-17T17:42:25.880Z,20.00
2022-10-17T17:45:27.557Z,20.00
2022-10-17T17:48:29.398Z,19.80
2022-10-17T17:51:31.005Z,19.70
2022-10-17T17:54:35.050Z,19.70
2022-10-17T17:57:37.955Z,19.60
2022-10-17T18:00:40.552Z,19.60
2022-10-17T18:03:42.191Z,19.50
2022-10-17T18:06:44.250Z,19.50
2022-10-17T18:09:45.848Z,19.30
2022-10-17T18:12:47.420Z,19.30
2022-10-17T18:15:51.750Z,19.20
2022-10-17T18:18:54.041Z,19.20
2022-10-17T18:21:55.672Z,19.10
2022-10-17T18:24:57.329Z,19.10
2022-10-17T18:27:58.914Z,19.10
2022-10-17T18:31:15.348Z,19.00
2022-10-17T18:34:16.996Z,19.00
2022-10-17T18:37:18.629Z,19.00
2022-10-17T18:40:20.320Z,19.00
2022-10-17T18:43:23.017Z,18.90
2022-10-17T18:46:29.072Z,18.90
2022-10-17T18:49:30.868Z,18.90
2022-10-17T18:52:32.440Z,18.90
2022-10-17T18:55:34.119Z,18.90
2022-10-17T18:58:37.970Z,18.90
2022-10-17T19:01:39.800Z,18.90
2022-10-17T19:04:41.517Z,18.90
2022-10-17T19:07:43.094Z,18.80
2022-10-17T19:10:44.725Z,18.70
2022-10-17T19:13:47.803Z,18.80
2022-10-17T19:16:50.846Z,18.70
2022-10-17T19:19:53.174Z,18.70
2022-10-17T19:22:54.789Z,18.70
2022-10-17T19:26:05.549Z,18.70
2022-10-17T19:29:07.530Z,18.70
2022-10-17T19:32:15.587Z,18.60
2022-10-17T19:35:19.625Z,18.60
2022-10-17T19:38:21.186Z,18.60
2022-10-17T19:41:23.573Z,18.50
2022-10-17T19:44:25.245Z,18.50
2022-10-17T19:47:26.847Z,18.50
2022-10-17T19:50:28.489Z,18.40
2022-10-17T19:53:30.184Z,18.40
2022-10-17T19:56:33.662Z,18.40
2022-10-17T19:59:35.243Z,18.40
2022-10-17T20:02:36.827Z,18.40
2022-10-17T20:05:38.641Z,18.40
2022-10-17T20:08:41.738Z,18.40
2022-10-17T20:11:43.342Z,18.30
2022-10-17T20:14:44.940Z,18.30
2022-10-17T20:17:46.573Z,18.30
2022-10-17T20:20:48.459Z,18.20
2022-10-17T20:23:50.590Z,18.20
2022-10-17T20:26:52.149Z,18.10
2022-10-17T20:29:53.855Z,18.10
2022-10-17T20:32:55.900Z,18.10
2022-10-17T20:35:57.565Z,18.10
2022-10-17T20:38:59.544Z,18.10
2022-10-17T20:42:01.117Z,18.10
2022-10-17T20:45:03.356Z,18.00
2022-10-17T20:48:06.357Z,18.00
2022-10-17T20:51:09.045Z,18.00
2022-10-17T20:54:11.730Z,18.00
2022-10-17T20:57:13.723Z,18.00
2022-10-17T21:00:15.496Z,17.90
2022-10-17T21:03:17.076Z,17.80
2022-10-17T21:06:19.517Z,17.80
2022-10-17T21:09:21.897Z,17.80
2022-10-17T21:12:31.333Z,17.80
2022-10-17T21:15:44.564Z,17.80
2022-10-17T21:18:46.408Z,17.60
2022-10-17T21:21:48.316Z,17.60
2022-10-17T21:24:49.973Z,17.60
2022-10-17T21:27:54.343Z,17.60
2022-10-17T21:30:55.943Z,17.60
2022-10-17T21:33:59.168Z,17.60
2022-10-17T21:37:00.778Z,17.50
2022-10-17T21:40:02.421Z,17.50
2022-10-17T21:43:04.008Z,17.50
2022-10-17T21:46:11.332Z,17.50
2022-10-17T21:49:14.843Z,17.50
2022-10-17T21:52:16.447Z,17.50
2022-10-17T21:55:18.056Z,17.50
2022-10-17T21:58:21.023Z,17.50
2022-10-17T22:01:25.354Z,17.40
2022-10-17T22:04:27.034Z,17.40
2022-10-17T22:07:28.630Z,17.40
2022-10-17T22:10:30.261Z,17.40
2022-10-17T22:13:31.913Z,17.30
2022-10-17T22:16:34.496Z,17.20
2022-10-17T22:19:36.136Z,17.20
2022-10-17T22:22:37.805Z,17.10
2022-10-17T22:25:39.575Z,17.20
2022-10-17T22:28:41.727Z,17.30
2022-10-17T22:31:43.473Z,17.30
2022-10-17T22:34:45.528Z,17.30
2022-10-17T22:37:47.516Z,17.40
2022-10-17T22:40:49.111Z,17.30
2022-10-17T22:43:50.729Z,17.40
2022-10-17T22:46:52.304Z,17.40
2022-10-17T22:49:53.924Z,17.40
2022-10-17T22:52:55.610Z,17.40
2022-10-17T22:56:00.571Z,17.40
2022-10-17T22:59:02.471Z,17.40
2022-10-17T23:02:04.141Z,17.40
2022-10-17T23:05:06.812Z,17.40
2022-10-17T23:08:10.873Z,17.40
2022-10-17T23:11:12.871Z,17.40
2022-10-17T23:14:14.500Z,17.40
2022-10-17T23:17:16.414Z,17.40
2022-10-17T23:20:18.299Z,17.30
2022-10-17T23:23:19.964Z,17.30
2022-10-17T23:26:21.623Z,17.30
2022-10-17T23:29:23.779Z,17.20
2022-10-17T23:32:25.436Z,17.20
2022-10-17T23:35:27.143Z,17.10
2022-10-17T23:38:28.728Z,17.10
2022-10-17T23:41:30.366Z,17.10
2022-10-17T23:44:31.977Z,17.10
2022-10-17T23:47:33.823Z,17.10
2022-10-17T23:50:35.558Z,17.10
2022-10-17T23:53:38.070Z,17.00
2022-10-17T23:56:39.659Z,17.00
2022-10-17T23:59:41.330Z,17.00
